SCEL/SCL METAR and TAF weather

Enter ICAO airport designator
Station Type Date Time Source
SCEL METAR 2020/03/29 15:22 UTC NOAA

SCEL 291522Z AUTO 22004KT 130V280 9999 NCD 23/13 Q1016 NOSIG


Station Type Date Time Source
SCEL Decoded METAR 2020/03/29 15:22 UTC NOAA

Pudahuel, Chile (SCEL) 33-23S 070-47W 476M
Mar 29, 2020 - 11:22 AM EDT / 2020.03.29 1522 UTC
Wind: from the SW (220 degrees) at 5 MPH (4 KT) (direction variable):0
Visibility: greater than 7 mile(s):0
Temperature: 73 F (23 C)
Dew Point: 55 F (13 C)
Relative Humidity: 53%
Pressure (altimeter): 30.00 in. Hg (1016 hPa)
ob: SCEL 291522Z AUTO 22004KT 130V280 9999 NCD 23/13 Q1016 NOSIG
cycle: 15

Station Type Date Time Source
SCEL TAF 2020/03/29 12:22 UTC NOAA

TAF COR SCEL 291117Z 2912/3012 16004KT 4000 BR NSC TX26/2919Z TN12/ 2911Z
TEMPO 2912/2914 VRB02KT 1500 BR
BECMG 2914/2916 CAVOK
BECMG 2918/2920 21010KT
BECMG 3001/3003 16005KT
TEMPO 3009/3012 7000 NSC

Example: see airport list